sensor_id;sensor_type;location;lat;lon;timestamp;pressure;altitude;pressure_sealevel;temperature;humidity
54816;BME280;40715;55.752;37.884;2023-04-07T00:00:24;99901.47;;;31.93;26.54
54816;BME280;40715;55.752;37.884;2023-04-07T00:02:52;99910.63;;;31.92;26.13
54816;BME280;40715;55.752;37.884;2023-04-07T00:05:19;99904.19;;;31.93;26.12
54816;BME280;40715;55.752;37.884;2023-04-07T00:07:46;99906.06;;;31.93;26.16
54816;BME280;40715;55.752;37.884;2023-04-07T00:10:21;99907.75;;;31.94;26.61
54816;BME280;40715;55.752;37.884;2023-04-07T00:12:48;99910.47;;;31.94;26.62
54816;BME280;40715;55.752;37.884;2023-04-07T00:15:15;99904.19;;;31.93;26.28
54816;BME280;40715;55.752;37.884;2023-04-07T00:17:42;99903.50;;;31.91;26.19
54816;BME280;40715;55.752;37.884;2023-04-07T00:20:10;99901.63;;;31.92;26.67
54816;BME280;40715;55.752;37.884;2023-04-07T00:22:37;99895.16;;;31.93;26.56
54816;BME280;40715;55.752;37.884;2023-04-07T00:25:04;99903.34;;;31.93;26.06
54816;BME280;40715;55.752;37.884;2023-04-07T00:27:31;99904.00;;;31.95;26.11
54816;BME280;40715;55.752;37.884;2023-04-07T00:29:58;99903.16;;;31.94;26.09
54816;BME280;40715;55.752;37.884;2023-04-07T00:32:25;99902.16;;;31.95;26.61
54816;BME280;40715;55.752;37.884;2023-04-07T00:34:52;99903.00;;;31.96;26.27
54816;BME280;40715;55.752;37.884;2023-04-07T00:37:19;99903.16;;;31.94;26.24
54816;BME280;40715;55.752;37.884;2023-04-07T00:39:46;99905.91;;;31.94;26.03
54816;BME280;40715;55.752;37.884;2023-04-07T00:42:13;99906.06;;;31.93;26.46
54816;BME280;40715;55.752;37.884;2023-04-07T00:44:41;99906.22;;;31.91;26.13
54816;BME280;40715;55.752;37.884;2023-04-07T00:47:08;99906.41;;;31.90;26.13
54816;BME280;40715;55.752;37.884;2023-04-07T00:49:38;99904.16;;;31.85;26.42
54816;BME280;40715;55.752;37.884;2023-04-07T00:52:05;99891.03;;;31.80;26.23
54816;BME280;40715;55.752;37.884;2023-04-07T00:54:33;99898.69;;;31.85;26.15
54816;BME280;40715;55.752;37.884;2023-04-07T00:57:00;99901.75;;;31.82;26.22
54816;BME280;40715;55.752;37.884;2023-04-07T00:59:28;99899.72;;;31.76;26.14
54816;BME280;40715;55.752;37.884;2023-04-07T01:05:29;99890.19;;;31.80;26.57
54816;BME280;40715;55.752;37.884;2023-04-07T01:08:00;99893.56;;;31.74;26.49
54816;BME280;40715;55.752;37.884;2023-04-07T01:13:09;99895.06;;;31.68;26.25
54816;BME280;40715;55.752;37.884;2023-04-07T01:15:39;99898.84;;;31.67;26.26
54816;BME280;40715;55.752;37.884;2023-04-07T01:18:23;99898.84;;;31.75;26.33
54816;BME280;40715;55.752;37.884;2023-04-07T01:20:55;99901.38;;;31.69;26.35
54816;BME280;40715;55.752;37.884;2023-04-07T01:26:18;99905.78;;;31.70;26.04
54816;BME280;40715;55.752;37.884;2023-04-07T01:28:56;99907.47;;;31.62;26.51
54816;BME280;40715;55.752;37.884;2023-04-07T01:31:27;99902.19;;;31.61;26.26
54816;BME280;40715;55.752;37.884;2023-04-07T01:33:57;99895.34;;;31.57;26.15
54816;BME280;40715;55.752;37.884;2023-04-07T01:36:26;99909.69;;;31.59;26.12
54816;BME280;40715;55.752;37.884;2023-04-07T01:38:55;99901.13;;;31.54;26.36
54816;BME280;40715;55.752;37.884;2023-04-07T01:41:23;99908.28;;;31.55;26.05
54816;BME280;40715;55.752;37.884;2023-04-07T01:43:52;99910.00;;;31.56;26.28
54816;BME280;40715;55.752;37.884;2023-04-07T01:46:21;99900.09;;;31.55;26.40
54816;BME280;40715;55.752;37.884;2023-04-07T01:48:48;99900.28;;;31.53;26.37
54816;BME280;40715;55.752;37.884;2023-04-07T01:51:15;99899.44;;;31.53;26.08
54816;BME280;40715;55.752;37.884;2023-04-07T01:53:45;99897.88;;;31.50;26.13
54816;BME280;40715;55.752;37.884;2023-04-07T01:56:14;99907.06;;;31.49;26.52
54816;BME280;40715;55.752;37.884;2023-04-07T01:58:41;99898.03;;;31.48;26.13
54816;BME280;40715;55.752;37.884;2023-04-07T02:01:08;99899.22;;;31.46;26.21
54816;BME280;40715;55.752;37.884;2023-04-07T02:03:43;99889.88;;;31.48;26.22
54816;BME280;40715;55.752;37.884;2023-04-07T02:06:17;99898.22;;;31.47;26.07
54816;BME280;40715;55.752;37.884;2023-04-07T02:08:49;99901.22;;;31.44;26.31
54816;BME280;40715;55.752;37.884;2023-04-07T02:11:19;99908.56;;;31.43;26.54
54816;BME280;40715;55.752;37.884;2023-04-07T02:13:47;99899.56;;;31.43;26.09
54816;BME280;40715;55.752;37.884;2023-04-07T02:16:38;99893.72;;;31.38;26.28
54816;BME280;40715;55.752;37.884;2023-04-07T02:19:07;99898.00;;;31.40;26.60
54816;BME280;40715;55.752;37.884;2023-04-07T02:21:35;99901.56;;;31.41;26.20
54816;BME280;40715;55.752;37.884;2023-04-07T02:24:06;99899.19;;;31.38;26.25
54816;BME280;40715;55.752;37.884;2023-04-07T02:26:34;99908.19;;;31.38;26.30
54816;BME280;40715;55.752;37.884;2023-04-07T02:29:04;99909.91;;;31.39;26.26
54816;BME280;40715;55.752;37.884;2023-04-07T02:31:31;99906.34;;;31.39;26.73
54816;BME280;40715;55.752;37.884;2023-04-07T02:33:58;99904.28;;;31.41;26.68
54816;BME280;40715;55.752;37.884;2023-04-07T02:36:25;99906.16;;;31.40;26.53
54816;BME280;40715;55.752;37.884;2023-04-07T02:38:53;99904.13;;;31.42;26.82
54816;BME280;40715;55.752;37.884;2023-04-07T02:41:20;99901.41;;;31.42;26.53
54816;BME280;40715;55.752;37.884;2023-04-07T02:43:47;99907.72;;;31.43;27.11
54816;BME280;40715;55.752;37.884;2023-04-07T02:46:14;99910.28;;;31.44;27.18
54816;BME280;40715;55.752;37.884;2023-04-07T02:48:42;99905.66;;;31.45;27.29
54816;BME280;40715;55.752;37.884;2023-04-07T02:51:09;99913.84;;;31.45;27.54
54816;BME280;40715;55.752;37.884;2023-04-07T02:53:36;99906.69;;;31.44;27.39
54816;BME280;40715;55.752;37.884;2023-04-07T02:56:04;99917.56;;;31.44;27.81
54816;BME280;40715;55.752;37.884;2023-04-07T02:58:32;99920.28;;;31.44;27.73
54816;BME280;40715;55.752;37.884;2023-04-07T03:00:59;99921.16;;;31.44;27.81
54816;BME280;40715;55.752;37.884;2023-04-07T03:03:26;99922.84;;;31.45;27.94
54816;BME280;40715;55.752;37.884;2023-04-07T03:05:53;99925.75;;;31.44;27.37
54816;BME280;40715;55.752;37.884;2023-04-07T03:08:20;99924.56;;;31.46;27.82
54816;BME280;40715;55.752;37.884;2023-04-07T03:10:47;99929.84;;;31.48;27.76
54816;BME280;40715;55.752;37.884;2023-04-07T03:13:14;99920.00;;;31.47;27.74
54816;BME280;40715;55.752;37.884;2023-04-07T03:15:45;99922.56;;;31.48;27.50
54816;BME280;40715;55.752;37.884;2023-04-07T03:18:14;99927.28;;;31.46;27.76
54816;BME280;40715;55.752;37.884;2023-04-07T03:20:42;99927.44;;;31.45;27.74
54816;BME280;40715;55.752;37.884;2023-04-07T03:23:10;99921.69;;;31.48;27.89
54816;BME280;40715;55.752;37.884;2023-04-07T03:25:36;99928.84;;;31.49;28.13
54816;BME280;40715;55.752;37.884;2023-04-07T03:28:04;99928.84;;;31.49;28.07
54816;BME280;40715;55.752;37.884;2023-04-07T03:30:30;99935.13;;;31.49;27.93
54816;BME280;40715;55.752;37.884;2023-04-07T03:32:57;99931.22;;;31.52;28.27
54816;BME280;40715;55.752;37.884;2023-04-07T03:35:24;99932.94;;;31.53;28.46
54816;BME280;40715;55.752;37.884;2023-04-07T03:37:52;99932.41;;;31.49;28.01
54816;BME280;40715;55.752;37.884;2023-04-07T03:40:19;99939.41;;;31.52;28.18
54816;BME280;40715;55.752;37.884;2023-04-07T03:42:47;99939.41;;;31.52;28.37
54816;BME280;40715;55.752;37.884;2023-04-07T03:45:13;99943.84;;;31.53;28.46
54816;BME280;40715;55.752;37.884;2023-04-07T03:47:41;99945.72;;;31.53;28.53
54816;BME280;40715;55.752;37.884;2023-04-07T03:50:08;99942.28;;;31.50;28.64
54816;BME280;40715;55.752;37.884;2023-04-07T03:52:36;99949.28;;;31.53;28.71
54816;BME280;40715;55.752;37.884;2023-04-07T03:55:03;99950.13;;;31.54;28.58
54816;BME280;40715;55.752;37.884;2023-04-07T03:57:30;99948.28;;;31.54;28.35
54816;BME280;40715;55.752;37.884;2023-04-07T03:59:57;99944.69;;;31.54;28.77
54816;BME280;40715;55.752;37.884;2023-04-07T04:02:23;99951.00;;;31.54;28.71
54816;BME280;40715;55.752;37.884;2023-04-07T04:04:50;99948.44;;;31.53;28.70
54816;BME280;40715;55.752;37.884;2023-04-07T04:07:17;99948.28;;;31.54;28.33
54816;BME280;40715;55.752;37.884;2023-04-07T04:09:44;99953.72;;;31.54;28.20
54816;BME280;40715;55.752;37.884;2023-04-07T04:12:11;99958.28;;;31.54;28.33
54816;BME280;40715;55.752;37.884;2023-04-07T04:14:38;99958.28;;;31.54;28.31
54816;BME280;40715;55.752;37.884;2023-04-07T04:17:05;99946.19;;;31.48;28.20
54816;BME280;40715;55.752;37.884;2023-04-07T04:19:32;99962.91;;;31.53;28.62
54816;BME280;40715;55.752;37.884;2023-04-07T04:21:59;99959.16;;;31.54;28.39
54816;BME280;40715;55.752;37.884;2023-04-07T04:24:26;99961.88;;;31.54;28.69
54816;BME280;40715;55.752;37.884;2023-04-07T04:26:53;99957.44;;;31.53;28.71
54816;BME280;40715;55.752;37.884;2023-04-07T04:29:20;99967.34;;;31.54;28.48
54816;BME280;40715;55.752;37.884;2023-04-07T04:31:47;99961.72;;;31.56;28.63
54816;BME280;40715;55.752;37.884;2023-04-07T04:34:14;99964.31;;;31.57;28.61
54816;BME280;40715;55.752;37.884;2023-04-07T04:36:41;99973.31;;;31.58;28.80
54816;BME280;40715;55.752;37.884;2023-04-07T04:39:08;99970.59;;;31.58;28.82
54816;BME280;40715;55.752;37.884;2023-04-07T04:41:35;99972.31;;;31.59;28.69
54816;BME280;40715;55.752;37.884;2023-04-07T04:44:02;99974.19;;;31.58;28.96
54816;BME280;40715;55.752;37.884;2023-04-07T04:46:30;99973.31;;;31.58;29.02
54816;BME280;40715;55.752;37.884;2023-04-07T04:48:58;99978.44;;;31.61;28.74
54816;BME280;40715;55.752;37.884;2023-04-07T04:51:25;99977.59;;;31.60;29.08
54816;BME280;40715;55.752;37.884;2023-04-07T04:54:11;99978.16;;;31.64;28.77
54816;BME280;40715;55.752;37.884;2023-04-07T04:56:38;99983.06;;;31.60;28.83
54816;BME280;40715;55.752;37.884;2023-04-07T04:59:05;99975.72;;;31.61;29.18
54816;BME280;40715;55.752;37.884;2023-04-07T05:01:32;99986.63;;;31.61;29.18
54816;BME280;40715;55.752;37.884;2023-04-07T05:03:59;99984.22;;;31.58;29.16
54816;BME280;40715;55.752;37.884;2023-04-07T05:06:26;99986.63;;;31.61;29.04
54816;BME280;40715;55.752;37.884;2023-04-07T05:08:54;99982.22;;;31.60;29.19
54816;BME280;40715;55.752;37.884;2023-04-07T05:11:22;99990.22;;;31.61;29.27
54816;BME280;40715;55.752;37.884;2023-04-07T05:13:49;99983.06;;;31.60;29.35
54816;BME280;40715;55.752;37.884;2023-04-07T05:16:16;99987.31;;;31.63;29.19
54816;BME280;40715;55.752;37.884;2023-04-07T05:18:44;99990.22;;;31.61;29.17
54816;BME280;40715;55.752;37.884;2023-04-07T05:21:11;99995.50;;;31.63;29.18
54816;BME280;40715;55.752;37.884;2023-04-07T05:23:38;99993.63;;;31.63;28.91
54816;BME280;40715;55.752;37.884;2023-04-07T05:26:04;99996.34;;;31.63;28.92
54816;BME280;40715;55.752;37.884;2023-04-07T05:28:31;99999.06;;;31.63;29.21
54816;BME280;40715;55.752;37.884;2023-04-07T05:30:58;99990.88;;;31.63;29.01
54816;BME280;40715;55.752;37.884;2023-04-07T05:33:27;99991.91;;;31.62;28.84
54816;BME280;40715;55.752;37.884;2023-04-07T05:35:54;99995.50;;;31.63;29.34
54816;BME280;40715;55.752;37.884;2023-04-07T05:38:22;99997.03;;;31.65;28.96
54816;BME280;40715;55.752;37.884;2023-04-07T05:40:48;99990.72;;;31.65;29.29
54816;BME280;40715;55.752;37.884;2023-04-07T05:43:16;99996.16;;;31.65;29.06
54816;BME280;40715;55.752;37.884;2023-04-07T05:45:43;100007.78;;;31.67;28.80
54816;BME280;40715;55.752;37.884;2023-04-07T05:48:10;100005.06;;;31.67;29.05
54816;BME280;40715;55.752;37.884;2023-04-07T05:50:37;100005.91;;;31.67;28.84
54816;BME280;40715;55.752;37.884;2023-04-07T05:53:03;100001.44;;;31.66;28.99
54816;BME280;40715;55.752;37.884;2023-04-07T05:55:30;100009.47;;;31.68;29.32
54816;BME280;40715;55.752;37.884;2023-04-07T05:57:58;100005.06;;;31.67;29.37
54816;BME280;40715;55.752;37.884;2023-04-07T06:00:25;100011.50;;;31.66;29.48
54816;BME280;40715;55.752;37.884;2023-04-07T06:02:53;100011.50;;;31.66;29.26
54816;BME280;40715;55.752;37.884;2023-04-07T06:05:20;100001.28;;;31.60;29.67
54816;BME280;40715;55.752;37.884;2023-04-07T06:07:47;100009.63;;;31.66;29.17
54816;BME280;40715;55.752;37.884;2023-04-07T06:10:17;100005.22;;;31.65;29.50
54816;BME280;40715;55.752;37.884;2023-04-07T06:12:45;100010.34;;;31.69;29.06
54816;BME280;40715;55.752;37.884;2023-04-07T06:15:12;100020.06;;;31.71;29.58
54816;BME280;40715;55.752;37.884;2023-04-07T06:17:39;100015.28;;;31.73;29.40
54816;BME280;40715;55.752;37.884;2023-04-07T06:20:07;100013.94;;;31.77;29.58
54816;BME280;40715;55.752;37.884;2023-04-07T06:22:34;100016.34;;;31.80;29.15
54816;BME280;40715;55.752;37.884;2023-04-07T06:25:02;100013.28;;;31.83;29.37
54816;BME280;40715;55.752;37.884;2023-04-07T06:27:29;100016.56;;;31.87;29.04
54816;BME280;40715;55.752;37.884;2023-04-07T06:29:59;100004.63;;;31.88;29.11
54816;BME280;40715;55.752;37.884;2023-04-07T06:32:27;100011.63;;;31.91;28.85
54816;BME280;40715;55.752;37.884;2023-04-07T06:34:54;100013.50;;;31.90;29.17
54816;BME280;40715;55.752;37.884;2023-04-07T06:37:22;100022.72;;;31.97;29.28
54816;BME280;40715;55.752;37.884;2023-04-07T06:39:51;100024.09;;;32.01;28.98
54816;BME280;40715;55.752;37.884;2023-04-07T06:42:18;100021.06;;;32.05;29.37
54816;BME280;40715;55.752;37.884;2023-04-07T06:44:45;100022.59;;;32.07;28.85
54816;BME280;40715;55.752;37.884;2023-04-07T06:47:13;100023.97;;;32.11;29.21
54816;BME280;40715;55.752;37.884;2023-04-07T06:49:41;100029.97;;;32.15;29.14
54816;BME280;40715;55.752;37.884;2023-04-07T06:52:08;100030.69;;;32.17;29.18
54816;BME280;40715;55.752;37.884;2023-04-07T06:54:35;100027.72;;;32.10;29.23
54816;BME280;40715;55.752;37.884;2023-04-07T06:57:03;100013.25;;;32.10;28.77
54816;BME280;40715;55.752;37.884;2023-04-07T06:59:32;100029.13;;;32.14;28.68
54816;BME280;40715;55.752;37.884;2023-04-07T07:01:59;100026.25;;;32.16;28.69
54816;BME280;40715;55.752;37.884;2023-04-07T07:04:27;100032.38;;;32.18;28.63
54816;BME280;40715;55.752;37.884;2023-04-07T07:06:54;100032.06;;;32.21;28.73
54816;BME280;40715;55.752;37.884;2023-04-07T07:09:22;100019.44;;;32.20;28.74
54816;BME280;40715;55.752;37.884;2023-04-07T07:11:49;100030.19;;;32.22;28.97
54816;BME280;40715;55.752;37.884;2023-04-07T07:14:16;100027.97;;;32.25;28.37
54816;BME280;40715;55.752;37.884;2023-04-07T07:16:44;100028.31;;;32.30;28.54
54816;BME280;40715;55.752;37.884;2023-04-07T07:19:12;100023.72;;;32.31;28.42
54816;BME280;40715;55.752;37.884;2023-04-07T07:21:41;100029.88;;;32.33;28.36
54816;BME280;40715;55.752;37.884;2023-04-07T07:24:08;100025.97;;;32.35;28.63
54816;BME280;40715;55.752;37.884;2023-04-07T07:26:36;100029.69;;;32.34;28.31
54816;BME280;40715;55.752;37.884;2023-04-07T07:29:03;100030.91;;;32.40;28.26
54816;BME280;40715;55.752;37.884;2023-04-07T07:31:31;100020.00;;;32.40;28.27
54816;BME280;40715;55.752;37.884;2023-04-07T07:33:58;100027.69;;;32.45;28.36
54816;BME280;40715;55.752;37.884;2023-04-07T07:36:26;100033.50;;;32.50;28.35
54816;BME280;40715;55.752;37.884;2023-04-07T07:38:54;100029.59;;;32.52;28.25
54816;BME280;40715;55.752;37.884;2023-04-07T07:41:21;100032.81;;;32.56;28.28
54816;BME280;40715;55.752;37.884;2023-04-07T07:43:48;100033.53;;;32.58;28.30
54816;BME280;40715;55.752;37.884;2023-04-07T07:46:16;100025.50;;;32.57;27.89
54816;BME280;40715;55.752;37.884;2023-04-07T07:48:44;100029.59;;;32.61;28.10
54816;BME280;40715;55.752;37.884;2023-04-07T07:51:12;100024.81;;;32.63;28.17
54816;BME280;40715;55.752;37.884;2023-04-07T07:53:40;100029.28;;;32.64;28.05
54816;BME280;40715;55.752;37.884;2023-04-07T07:56:07;100024.66;;;32.64;27.59
54816;BME280;40715;55.752;37.884;2023-04-07T07:58:34;100031.84;;;32.65;28.00
54816;BME280;40715;55.752;37.884;2023-04-07T08:01:02;100019.88;;;32.66;27.95
54816;BME280;40715;55.752;37.884;2023-04-07T08:03:30;100026.06;;;32.68;27.47
54816;BME280;40715;55.752;37.884;2023-04-07T08:05:57;100022.31;;;32.69;27.71
54816;BME280;40715;55.752;37.884;2023-04-07T08:08:25;100017.72;;;32.70;28.08
54816;BME280;40715;55.752;37.884;2023-04-07T08:10:52;100025.06;;;32.69;27.75
54816;BME280;40715;55.752;37.884;2023-04-07T08:13:20;100032.03;;;32.72;27.69
54816;BME280;40715;55.752;37.884;2023-04-07T08:15:47;100031.00;;;32.73;27.79
54816;BME280;40715;55.752;37.884;2023-04-07T08:18:14;100024.72;;;32.73;27.73
54816;BME280;40715;55.752;37.884;2023-04-07T08:20:41;100025.56;;;32.73;27.86
54816;BME280;40715;55.752;37.884;2023-04-07T08:23:09;100028.97;;;32.75;27.44
54816;BME280;40715;55.752;37.884;2023-04-07T08:25:37;100017.72;;;32.70;27.52
54816;BME280;40715;55.752;37.884;2023-04-07T08:28:06;100029.66;;;32.77;27.07
54816;BME280;40715;55.752;37.884;2023-04-07T08:30:33;100013.81;;;32.73;27.25
54816;BME280;40715;55.752;37.884;2023-04-07T08:33:00;100017.91;;;32.77;27.49
54816;BME280;40715;55.752;37.884;2023-04-07T08:35:27;100026.94;;;32.77;27.37
54816;BME280;40715;55.752;37.884;2023-04-07T08:37:55;100016.19;;;32.76;27.14
54816;BME280;40715;55.752;37.884;2023-04-07T08:40:23;100018.91;;;32.76;27.11
54816;BME280;40715;55.752;37.884;2023-04-07T08:42:50;100007.28;;;32.74;27.25
54816;BME280;40715;55.752;37.884;2023-04-07T08:45:18;100012.75;;;32.74;26.94
54816;BME280;40715;55.752;37.884;2023-04-07T08:47:49;100021.09;;;32.72;27.15
54816;BME280;40715;55.752;37.884;2023-04-07T08:50:20;100008.81;;;32.68;27.20
54816;BME280;40715;55.752;37.884;2023-04-07T08:52:54;100003.06;;;32.71;27.06
54816;BME280;40715;55.752;37.884;2023-04-07T08:55:22;100012.25;;;32.70;27.09
54816;BME280;40715;55.752;37.884;2023-04-07T08:57:50;100026.91;;;32.69;26.66
54816;BME280;40715;55.752;37.884;2023-04-07T09:00:18;100024.19;;;32.69;26.44
54816;BME280;40715;55.752;37.884;2023-04-07T09:02:46;100022.47;;;32.68;27.08
54816;BME280;40715;55.752;37.884;2023-04-07T09:05:15;100015.28;;;32.67;26.88
54816;BME280;40715;55.752;37.884;2023-04-07T09:07:42;100026.91;;;32.69;27.42
54816;BME280;40715;55.752;37.884;2023-04-07T09:10:09;100027.91;;;32.68;26.71
54816;BME280;40715;55.752;37.884;2023-04-07T09:12:38;100020.59;;;32.68;26.66
54816;BME280;40715;55.752;37.884;2023-04-07T09:15:08;100002.16;;;32.62;26.81
54816;BME280;40715;55.752;37.884;2023-04-07T09:17:35;100016.47;;;32.64;26.86
54816;BME280;40715;55.752;37.884;2023-04-07T09:20:02;100026.72;;;32.62;26.63
54816;BME280;40715;55.752;37.884;2023-04-07T09:22:41;100025.84;;;32.62;26.79
54816;BME280;40715;55.752;37.884;2023-04-07T09:25:17;100006.06;;;32.60;26.91
54816;BME280;40715;55.752;37.884;2023-04-07T09:28:01;100012.03;;;32.63;26.91
54816;BME280;40715;55.752;37.884;2023-04-07T09:30:30;100009.47;;;32.53;26.41
54816;BME280;40715;55.752;37.884;2023-04-07T09:32:59;99996.34;;;32.49;26.51
54816;BME280;40715;55.752;37.884;2023-04-07T09:35:28;100002.13;;;32.46;26.56
54816;BME280;40715;55.752;37.884;2023-04-07T09:38:03;100002.78;;;32.48;26.43
54816;BME280;40715;55.752;37.884;2023-04-07T09:40:31;100008.75;;;32.43;26.48
54816;BME280;40715;55.752;37.884;2023-04-07T09:42:59;100004.19;;;32.44;26.87
54816;BME280;40715;55.752;37.884;2023-04-07T09:45:27;100003.66;;;32.40;26.75
54816;BME280;40715;55.752;37.884;2023-04-07T09:47:58;100007.03;;;32.42;26.74
54816;BME280;40715;55.752;37.884;2023-04-07T09:50:37;100004.69;;;32.47;26.54
54816;BME280;40715;55.752;37.884;2023-04-07T09:53:06;100009.09;;;32.40;26.62
54816;BME280;40715;55.752;37.884;2023-04-07T09:55:34;100008.56;;;32.37;26.68
54816;BME280;40715;55.752;37.884;2023-04-07T09:58:03;99992.22;;;32.28;26.85
54816;BME280;40715;55.752;37.884;2023-04-07T10:00:30;100009.78;;;32.34;26.82
54816;BME280;40715;55.752;37.884;2023-04-07T10:02:58;100001.78;;;32.32;26.52
54816;BME280;40715;55.752;37.884;2023-04-07T10:05:26;100004.63;;;32.31;26.36
54816;BME280;40715;55.752;37.884;2023-04-07T10:07:54;100012.97;;;32.29;26.20
54816;BME280;40715;55.752;37.884;2023-04-07T10:10:21;100006.00;;;32.27;26.30
54816;BME280;40715;55.752;37.884;2023-04-07T10:12:49;100015.38;;;32.24;26.64
54816;BME280;40715;55.752;37.884;2023-04-07T10:15:20;100008.19;;;32.23;26.48
54816;BME280;40715;55.752;37.884;2023-04-07T10:17:48;100007.53;;;32.21;26.30
54816;BME280;40715;55.752;37.884;2023-04-07T10:20:17;100003.94;;;32.21;26.35
54816;BME280;40715;55.752;37.884;2023-04-07T10:22:50;100012.09;;;32.21;26.87
54816;BME280;40715;55.752;37.884;2023-04-07T10:25:21;100006.47;;;32.22;26.71
54816;BME280;40715;55.752;37.884;2023-04-07T10:28:03;100008.22;;;32.31;26.84
54816;BME280;40715;55.752;37.884;2023-04-07T10:30:32;100000.88;;;32.24;26.37
54816;BME280;40715;55.752;37.884;2023-04-07T10:33:01;100006.16;;;32.25;26.37
54816;BME280;40715;55.752;37.884;2023-04-07T10:36:22;100000.09;;;32.40;26.45
54816;BME280;40715;55.752;37.884;2023-04-07T10:41:37;100002.25;;;32.28;26.34
54816;BME280;40715;55.752;37.884;2023-04-07T10:47:07;100008.22;;;32.31;26.38
54816;BME280;40715;55.752;37.884;2023-04-07T10:49:35;100004.97;;;32.28;26.49
54816;BME280;40715;55.752;37.884;2023-04-07T10:52:22;100000.06;;;32.48;26.78
54816;BME280;40715;55.752;37.884;2023-04-07T11:08:39;99999.91;;;32.41;26.66
54816;BME280;40715;55.752;37.884;2023-04-07T11:11:09;100004.34;;;32.50;26.76
54816;BME280;40715;55.752;37.884;2023-04-07T11:13:48;100007.94;;;32.51;26.67
54816;BME280;40715;55.752;37.884;2023-04-07T11:16:17;99999.22;;;32.47;26.37
54816;BME280;40715;55.752;37.884;2023-04-07T11:18:46;100000.25;;;32.46;26.12
54816;BME280;40715;55.752;37.884;2023-04-07T11:21:17;100005.53;;;32.48;26.37
54816;BME280;40715;55.752;37.884;2023-04-07T11:23:46;99998.22;;;32.48;26.30
54816;BME280;40715;55.752;37.884;2023-04-07T11:26:14;100007.75;;;32.61;26.49
54816;BME280;40715;55.752;37.884;2023-04-07T11:28:46;99990.91;;;32.65;26.24
54816;BME280;40715;55.752;37.884;2023-04-07T11:31:24;100002.00;;;32.72;25.91
54816;BME280;40715;55.752;37.884;2023-04-07T11:33:56;100004.25;;;32.68;26.10
54816;BME280;40715;55.752;37.884;2023-04-07T11:36:32;100005.09;;;32.69;25.89
54816;BME280;40715;55.752;37.884;2023-04-07T11:39:03;100004.06;;;32.70;26.12
54816;BME280;40715;55.752;37.884;2023-04-07T11:41:32;100002.34;;;32.69;26.08
54816;BME280;40715;55.752;37.884;2023-04-07T11:44:10;99987.88;;;32.77;26.15
54816;BME280;40715;55.752;37.884;2023-04-07T11:46:58;99988.41;;;32.89;25.85
54816;BME280;40715;55.752;37.884;2023-04-07T11:49:29;99996.38;;;32.74;25.77
54816;BME280;40715;55.752;37.884;2023-04-07T11:52:03;99995.88;;;32.70;25.78
54816;BME280;40715;55.752;37.884;2023-04-07T11:54:42;99993.34;;;32.77;25.91
54816;BME280;40715;55.752;37.884;2023-04-07T11:57:10;99994.69;;;32.73;25.66
54816;BME280;40715;55.752;37.884;2023-04-07T11:59:39;99989.72;;;32.68;25.98
54816;BME280;40715;55.752;37.884;2023-04-07T12:02:09;99994.00;;;32.71;25.71
54816;BME280;40715;55.752;37.884;2023-04-07T12:04:54;99993.84;;;32.80;25.76
54816;BME280;40715;55.752;37.884;2023-04-07T12:07:23;99986.53;;;32.73;25.84
54816;BME280;40715;55.752;37.884;2023-04-07T12:09:53;99982.56;;;32.67;25.95
54816;BME280;40715;55.752;37.884;2023-04-07T12:12:27;99990.03;;;32.65;25.60
54816;BME280;40715;55.752;37.884;2023-04-07T12:14:55;99980.34;;;32.62;25.96
54816;BME280;40715;55.752;37.884;2023-04-07T12:17:24;99979.47;;;32.62;25.76
54816;BME280;40715;55.752;37.884;2023-04-07T12:19:52;99980.66;;;32.59;25.69
54816;BME280;40715;55.752;37.884;2023-04-07T12:22:20;99993.44;;;32.59;25.70
54816;BME280;40715;55.752;37.884;2023-04-07T12:24:47;99990.91;;;32.57;25.78
54816;BME280;40715;55.752;37.884;2023-04-07T12:27:14;99985.63;;;32.56;25.65
54816;BME280;40715;55.752;37.884;2023-04-07T12:29:41;99978.28;;;32.56;25.89
54816;BME280;40715;55.752;37.884;2023-04-07T12:32:09;99985.44;;;32.57;25.93
54816;BME280;40715;55.752;37.884;2023-04-07T12:34:37;99976.22;;;32.50;25.63
54816;BME280;40715;55.752;37.884;2023-04-07T12:37:05;99988.00;;;32.59;25.54
54816;BME280;40715;55.752;37.884;2023-04-07T12:39:33;99993.13;;;32.62;25.69
54816;BME280;40715;55.752;37.884;2023-04-07T12:42:00;99995.00;;;32.61;25.55
54816;BME280;40715;55.752;37.884;2023-04-07T12:44:27;99991.09;;;32.64;25.33
54816;BME280;40715;55.752;37.884;2023-04-07T12:46:55;99984.59;;;32.65;25.80
54816;BME280;40715;55.752;37.884;2023-04-07T12:49:22;99984.75;;;32.63;25.50
54816;BME280;40715;55.752;37.884;2023-04-07T12:51:49;99986.31;;;32.66;25.69
54816;BME280;40715;55.752;37.884;2023-04-07T12:54:17;99983.56;;;32.66;25.98
54816;BME280;40715;55.752;37.884;2023-04-07T12:56:45;99982.72;;;32.65;25.57
54816;BME280;40715;55.752;37.884;2023-04-07T12:59:14;99986.13;;;32.67;25.49
54816;BME280;40715;55.752;37.884;2023-04-07T13:01:42;99984.13;;;32.69;25.88
54816;BME280;40715;55.752;37.884;2023-04-07T13:04:10;99977.81;;;32.69;25.93
54816;BME280;40715;55.752;37.884;2023-04-07T13:06:38;99979.53;;;32.70;25.62
54816;BME280;40715;55.752;37.884;2023-04-07T13:09:05;99978.34;;;32.73;25.42
54816;BME280;40715;55.752;37.884;2023-04-07T13:11:32;99965.19;;;32.68;25.68
54816;BME280;40715;55.752;37.884;2023-04-07T13:13:59;99973.19;;;32.78;25.65
54816;BME280;40715;55.752;37.884;2023-04-07T13:16:27;99984.81;;;32.80;25.63
54816;BME280;40715;55.752;37.884;2023-04-07T13:18:56;99981.22;;;32.79;25.65
54816;BME280;40715;55.752;37.884;2023-04-07T13:21:24;99982.75;;;32.82;25.57